sensor_id;sensor_type;location;lat;lon;timestamp;pressure;altitude;pressure_sealevel;temperature;humidity
13456;BME280;6800;50.940;6.940;2023-02-19T00:01:52;101107.81;;;20.79;48.21
13456;BME280;6800;50.940;6.940;2023-02-19T00:05:53;101099.44;;;20.84;47.55
13456;BME280;6800;50.940;6.940;2023-02-19T00:09:54;101094.16;;;20.65;48.13
13456;BME280;6800;50.940;6.940;2023-02-19T00:13:58;101084.75;;;20.99;47.61
13456;BME280;6800;50.940;6.940;2023-02-19T00:18:00;101090.91;;;20.80;48.28
13456;BME280;6800;50.940;6.940;2023-02-19T00:22:01;101089.91;;;21.00;47.91
13456;BME280;6800;50.940;6.940;2023-02-19T00:26:04;101093.81;;;21.06;48.07
13456;BME280;6800;50.940;6.940;2023-02-19T00:30:18;101083.81;;;20.62;48.71
13456;BME280;6800;50.940;6.940;2023-02-19T00:34:20;101081.53;;;21.05;47.68
13456;BME280;6800;50.940;6.940;2023-02-19T00:38:21;101075.41;;;20.85;48.00
13456;BME280;6800;50.940;6.940;2023-02-19T00:42:23;101072.88;;;20.93;48.06
13456;BME280;6800;50.940;6.940;2023-02-19T00:46:37;101077.47;;;20.91;47.75
13456;BME280;6800;50.940;6.940;2023-02-19T00:50:38;101071.38;;;20.81;48.08
13456;BME280;6800;50.940;6.940;2023-02-19T00:54:40;101072.31;;;21.09;46.85
13456;BME280;6800;50.940;6.940;2023-02-19T00:58:41;101074.06;;;20.43;48.39
13456;BME280;6800;50.940;6.940;2023-02-19T01:02:43;101058.84;;;21.20;46.78
13456;BME280;6800;50.940;6.940;2023-02-19T01:06:44;101066.84;;;21.01;46.77
13456;BME280;6800;50.940;6.940;2023-02-19T01:10:46;101063.50;;;21.09;46.95
13456;BME280;6800;50.940;6.940;2023-02-19T01:14:47;101070.41;;;20.73;47.48
13456;BME280;6800;50.940;6.940;2023-02-19T01:18:49;101055.91;;;20.67;47.88
13456;BME280;6800;50.940;6.940;2023-02-19T01:22:51;101061.16;;;21.06;46.49
13456;BME280;6800;50.940;6.940;2023-02-19T01:26:52;101053.88;;;21.08;46.46
13456;BME280;6800;50.940;6.940;2023-02-19T01:30:54;101050.13;;;21.28;45.99
13456;BME280;6800;50.940;6.940;2023-02-19T01:34:55;101047.31;;;20.92;46.75
13456;BME280;6800;50.940;6.940;2023-02-19T01:38:59;101055.69;;;21.07;46.05
13456;BME280;6800;50.940;6.940;2023-02-19T01:43:01;101052.91;;;20.89;46.46
13456;BME280;6800;50.940;6.940;2023-02-19T01:47:03;101054.63;;;21.54;44.80
13456;BME280;6800;50.940;6.940;2023-02-19T01:51:08;101051.78;;;21.38;45.33
13456;BME280;6800;50.940;6.940;2023-02-19T01:55:12;101051.81;;;21.29;45.36
13456;BME280;6800;50.940;6.940;2023-02-19T01:59:15;101051.69;;;21.21;45.49
13456;BME280;6800;50.940;6.940;2023-02-19T02:03:18;101050.56;;;20.77;46.27
13456;BME280;6800;50.940;6.940;2023-02-19T02:07:21;101042.59;;;21.33;45.24
13456;BME280;6800;50.940;6.940;2023-02-19T02:11:52;101049.28;;;20.81;46.69
13456;BME280;6800;50.940;6.940;2023-02-19T02:25:01;101048.75;;;21.24;44.79
13456;BME280;6800;50.940;6.940;2023-02-19T02:37:33;101046.06;;;20.87;45.83
13456;BME280;6800;50.940;6.940;2023-02-19T02:41:41;101045.75;;;21.09;46.08
13456;BME280;6800;50.940;6.940;2023-02-19T02:45:44;101041.72;;;20.20;48.04
13456;BME280;6800;50.940;6.940;2023-02-19T02:49:45;101041.41;;;21.08;46.24
13456;BME280;6800;50.940;6.940;2023-02-19T02:54:23;101040.59;;;20.98;46.19
13456;BME280;6800;50.940;6.940;2023-02-19T02:58:45;101033.44;;;21.08;46.16
13456;BME280;6800;50.940;6.940;2023-02-19T03:02:48;101032.88;;;20.58;47.41
13456;BME280;6800;50.940;6.940;2023-02-19T03:06:50;101046.06;;;20.87;46.80
13456;BME280;6800;50.940;6.940;2023-02-19T03:11:08;101057.50;;;20.97;46.22
13456;BME280;6800;50.940;6.940;2023-02-19T03:15:32;101047.38;;;20.64;47.06
13456;BME280;6800;50.940;6.940;2023-02-19T03:19:56;101055.34;;;20.64;46.81
13456;BME280;6800;50.940;6.940;2023-02-19T03:23:58;101061.59;;;20.72;46.79
13456;BME280;6800;50.940;6.940;2023-02-19T03:28:21;101062.63;;;20.52;47.07
13456;BME280;6800;50.940;6.940;2023-02-19T03:36:56;101063.72;;;20.69;46.38
13456;BME280;6800;50.940;6.940;2023-02-19T03:45:46;101074.06;;;20.72;46.20
13456;BME280;6800;50.940;6.940;2023-02-19T03:49:57;101078.13;;;20.28;46.59
13456;BME280;6800;50.940;6.940;2023-02-19T03:54:21;101088.25;;;20.90;44.90
13456;BME280;6800;50.940;6.940;2023-02-19T03:58:32;101085.31;;;20.83;45.33
13456;BME280;6800;50.940;6.940;2023-02-19T04:06:46;101097.66;;;20.27;46.84
13456;BME280;6800;50.940;6.940;2023-02-19T04:10:53;101101.44;;;20.63;45.48
13456;BME280;6800;50.940;6.940;2023-02-19T04:15:03;101108.41;;;20.64;45.77
13456;BME280;6800;50.940;6.940;2023-02-19T04:19:17;101095.78;;;20.85;45.36
13456;BME280;6800;50.940;6.940;2023-02-19T04:23:22;101117.63;;;20.50;46.31
13456;BME280;6800;50.940;6.940;2023-02-19T04:27:25;101123.03;;;20.30;46.47
13456;BME280;6800;50.940;6.940;2023-02-19T04:31:28;101133.25;;;20.63;45.75
13456;BME280;6800;50.940;6.940;2023-02-19T04:35:31;101143.03;;;20.34;46.46
13456;BME280;6800;50.940;6.940;2023-02-19T04:39:32;101138.41;;;20.26;46.72
13456;BME280;6800;50.940;6.940;2023-02-19T04:43:34;101155.31;;;20.35;47.11
13456;BME280;6800;50.940;6.940;2023-02-19T04:47:35;101151.97;;;20.52;46.80
13456;BME280;6800;50.940;6.940;2023-02-19T04:51:37;101159.28;;;20.19;47.69
13456;BME280;6800;50.940;6.940;2023-02-19T04:55:39;101134.34;;;20.51;47.39
13456;BME280;6800;50.940;6.940;2023-02-19T04:59:40;101155.16;;;20.27;47.59
13456;BME280;6800;50.940;6.940;2023-02-19T05:03:42;101154.47;;;20.25;48.11
13456;BME280;6800;50.940;6.940;2023-02-19T05:07:44;101170.66;;;20.31;47.94
13456;BME280;6800;50.940;6.940;2023-02-19T05:11:45;101165.84;;;20.06;47.71
13456;BME280;6800;50.940;6.940;2023-02-19T05:16:13;101176.25;;;19.98;48.22
13456;BME280;6800;50.940;6.940;2023-02-19T05:20:16;101186.13;;;20.26;47.77
13456;BME280;6800;50.940;6.940;2023-02-19T05:24:17;101177.25;;;20.06;48.34
13456;BME280;6800;50.940;6.940;2023-02-19T05:28:19;101187.06;;;20.15;48.11
13456;BME280;6800;50.940;6.940;2023-02-19T05:32:22;101195.72;;;20.17;47.72
13456;BME280;6800;50.940;6.940;2023-02-19T05:36:23;101188.66;;;20.47;47.25
13456;BME280;6800;50.940;6.940;2023-02-19T05:40:24;101202.34;;;20.33;47.98
13456;BME280;6800;50.940;6.940;2023-02-19T05:44:26;101212.25;;;20.31;47.44
13456;BME280;6800;50.940;6.940;2023-02-19T05:48:27;101229.38;;;19.87;48.69
13456;BME280;6800;50.940;6.940;2023-02-19T05:52:28;101220.75;;;19.64;49.14
13456;BME280;6800;50.940;6.940;2023-02-19T05:56:40;101227.44;;;19.89;48.23
13456;BME280;6800;50.940;6.940;2023-02-19T06:00:42;101231.91;;;19.06;50.21
13456;BME280;6800;50.940;6.940;2023-02-19T06:04:43;101241.03;;;19.33;49.53
13456;BME280;6800;50.940;6.940;2023-02-19T06:08:45;101241.72;;;20.07;47.64
13456;BME280;6800;50.940;6.940;2023-02-19T06:12:51;101241.94;;;19.94;48.32
13456;BME280;6800;50.940;6.940;2023-02-19T06:16:53;101249.06;;;19.94;48.02
13456;BME280;6800;50.940;6.940;2023-02-19T06:21:06;101257.81;;;19.85;48.84
13456;BME280;6800;50.940;6.940;2023-02-19T06:25:08;101249.03;;;19.84;48.81
13456;BME280;6800;50.940;6.940;2023-02-19T06:29:12;101255.41;;;19.72;48.54
13456;BME280;6800;50.940;6.940;2023-02-19T06:33:13;101265.03;;;19.53;48.90
13456;BME280;6800;50.940;6.940;2023-02-19T06:37:15;101262.22;;;19.75;48.37
13456;BME280;6800;50.940;6.940;2023-02-19T06:41:17;101264.66;;;19.87;48.15
13456;BME280;6800;50.940;6.940;2023-02-19T06:45:19;101263.97;;;19.23;49.15
13456;BME280;6800;50.940;6.940;2023-02-19T06:49:20;101276.84;;;19.99;47.73
13456;BME280;6800;50.940;6.940;2023-02-19T06:53:22;101278.94;;;19.75;48.13
13456;BME280;6800;50.940;6.940;2023-02-19T06:57:23;101279.59;;;20.18;47.11
13456;BME280;6800;50.940;6.940;2023-02-19T07:01:25;101284.81;;;19.79;48.01
13456;BME280;6800;50.940;6.940;2023-02-19T07:05:27;101291.22;;;19.97;47.55
13456;BME280;6800;50.940;6.940;2023-02-19T07:09:28;101292.66;;;19.60;47.86
13456;BME280;6800;50.940;6.940;2023-02-19T07:13:30;101303.06;;;19.52;48.58
13456;BME280;6800;50.940;6.940;2023-02-19T07:17:33;101321.84;;;18.85;49.21
13456;BME280;6800;50.940;6.940;2023-02-19T07:21:34;101334.28;;;19.48;48.49
13456;BME280;6800;50.940;6.940;2023-02-19T07:25:38;101337.94;;;19.36;48.68
13456;BME280;6800;50.940;6.940;2023-02-19T07:29:39;101334.97;;;19.71;47.99
13456;BME280;6800;50.940;6.940;2023-02-19T07:33:44;101339.97;;;19.85;47.51
13456;BME280;6800;50.940;6.940;2023-02-19T07:37:46;101337.88;;;19.47;48.15
13456;BME280;6800;50.940;6.940;2023-02-19T07:41:47;101356.38;;;19.58;48.03
13456;BME280;6800;50.940;6.940;2023-02-19T07:45:49;101375.44;;;19.93;47.68
13456;BME280;6800;50.940;6.940;2023-02-19T07:49:50;101375.69;;;19.90;47.32
13456;BME280;6800;50.940;6.940;2023-02-19T07:53:52;101383.13;;;19.55;48.23
13456;BME280;6800;50.940;6.940;2023-02-19T07:57:53;101385.38;;;19.60;48.29
13456;BME280;6800;50.940;6.940;2023-02-19T08:01:55;101388.53;;;20.15;47.71
13456;BME280;6800;50.940;6.940;2023-02-19T08:06:15;101400.06;;;20.46;46.82
13456;BME280;6800;50.940;6.940;2023-02-19T08:10:16;101398.53;;;20.53;46.21
13456;BME280;6800;50.940;6.940;2023-02-19T08:14:36;101414.81;;;20.18;46.93
13456;BME280;6800;50.940;6.940;2023-02-19T08:18:37;101412.78;;;20.11;46.55
13456;BME280;6800;50.940;6.940;2023-02-19T08:22:39;101416.97;;;20.25;47.01
13456;BME280;6800;50.940;6.940;2023-02-19T08:26:40;101417.53;;;20.28;46.52
13456;BME280;6800;50.940;6.940;2023-02-19T08:30:43;101415.97;;;20.26;47.03
13456;BME280;6800;50.940;6.940;2023-02-19T08:34:45;101430.06;;;20.47;46.24
13456;BME280;6800;50.940;6.940;2023-02-19T08:38:47;101434.38;;;20.06;46.78
13456;BME280;6800;50.940;6.940;2023-02-19T08:42:48;101446.63;;;20.39;45.99
13456;BME280;6800;50.940;6.940;2023-02-19T08:46:50;101442.81;;;20.32;46.21
13456;BME280;6800;50.940;6.940;2023-02-19T08:50:55;101447.81;;;20.26;46.37
13456;BME280;6800;50.940;6.940;2023-02-19T08:54:57;101452.19;;;20.36;45.89
13456;BME280;6800;50.940;6.940;2023-02-19T08:58:59;101453.22;;;20.45;46.34
13456;BME280;6800;50.940;6.940;2023-02-19T09:03:01;101451.59;;;20.53;45.60
13456;BME280;6800;50.940;6.940;2023-02-19T09:07:03;101460.47;;;20.63;45.60
13456;BME280;6800;50.940;6.940;2023-02-19T09:11:07;101455.66;;;21.18;44.59
13456;BME280;6800;50.940;6.940;2023-02-19T09:15:09;101456.34;;;21.20;43.93
13456;BME280;6800;50.940;6.940;2023-02-19T09:19:10;101461.78;;;20.48;45.36
13456;BME280;6800;50.940;6.940;2023-02-19T09:23:12;101459.97;;;21.09;44.53
13456;BME280;6800;50.940;6.940;2023-02-19T09:27:15;101461.16;;;21.35;43.68
13456;BME280;6800;50.940;6.940;2023-02-19T09:31:17;101473.53;;;21.16;44.05
13456;BME280;6800;50.940;6.940;2023-02-19T09:35:18;101481.63;;;20.84;44.47
13456;BME280;6800;50.940;6.940;2023-02-19T09:39:20;101486.06;;;20.74;43.96
13456;BME280;6800;50.940;6.940;2023-02-19T09:43:22;101493.69;;;20.97;43.49
13456;BME280;6800;50.940;6.940;2023-02-19T09:47:28;101493.09;;;20.54;43.86
13456;BME280;6800;50.940;6.940;2023-02-19T09:51:33;101501.59;;;20.58;44.37
13456;BME280;6800;50.940;6.940;2023-02-19T09:55:41;101512.75;;;20.52;44.38
13456;BME280;6800;50.940;6.940;2023-02-19T09:59:52;101508.31;;;20.82;43.31
13456;BME280;6800;50.940;6.940;2023-02-19T10:03:57;101511.72;;;20.94;43.55
13456;BME280;6800;50.940;6.940;2023-02-19T10:08:00;101518.25;;;20.07;45.22
13456;BME280;6800;50.940;6.940;2023-02-19T10:12:13;101521.66;;;20.71;44.42
13456;BME280;6800;50.940;6.940;2023-02-19T10:16:24;101522.28;;;21.05;44.20
13456;BME280;6800;50.940;6.940;2023-02-19T10:20:26;101519.50;;;20.86;44.98
13456;BME280;6800;50.940;6.940;2023-02-19T10:24:29;101536.34;;;21.26;43.63
13456;BME280;6800;50.940;6.940;2023-02-19T10:28:34;101548.22;;;21.32;43.40
13456;BME280;6800;50.940;6.940;2023-02-19T10:32:36;101570.66;;;21.48;43.12
13456;BME280;6800;50.940;6.940;2023-02-19T10:36:39;101566.19;;;21.19;43.30
13456;BME280;6800;50.940;6.940;2023-02-19T10:40:45;101570.66;;;20.88;43.89
13456;BME280;6800;50.940;6.940;2023-02-19T10:44:55;101581.84;;;21.12;43.59
13456;BME280;6800;50.940;6.940;2023-02-19T10:49:26;101590.28;;;20.76;44.73
13456;BME280;6800;50.940;6.940;2023-02-19T10:53:45;101595.72;;;20.95;44.39
13456;BME280;6800;50.940;6.940;2023-02-19T10:57:47;101608.78;;;21.38;43.68
13456;BME280;6800;50.940;6.940;2023-02-19T11:01:57;101608.41;;;20.71;44.70
13456;BME280;6800;50.940;6.940;2023-02-19T11:06:04;101618.16;;;20.91;44.38
13456;BME280;6800;50.940;6.940;2023-02-19T11:10:19;101617.38;;;21.00;43.70
13456;BME280;6800;50.940;6.940;2023-02-19T11:14:23;101606.81;;;21.30;43.45
13456;BME280;6800;50.940;6.940;2023-02-19T11:18:30;101615.75;;;21.29;43.08
13456;BME280;6800;50.940;6.940;2023-02-19T11:22:38;101618.91;;;21.44;43.08
13456;BME280;6800;50.940;6.940;2023-02-19T11:26:40;101615.63;;;21.70;42.58
13456;BME280;6800;50.940;6.940;2023-02-19T11:30:43;101621.22;;;22.07;42.26
13456;BME280;6800;50.940;6.940;2023-02-19T11:34:46;101618.50;;;21.88;42.14
13456;BME280;6800;50.940;6.940;2023-02-19T11:38:49;101616.31;;;22.31;41.00
13456;BME280;6800;50.940;6.940;2023-02-19T11:43:07;101623.34;;;21.73;42.07
13456;BME280;6800;50.940;6.940;2023-02-19T11:47:38;101623.91;;;21.37;42.90
13456;BME280;6800;50.940;6.940;2023-02-19T11:51:50;101616.47;;;21.31;42.94
13456;BME280;6800;50.940;6.940;2023-02-19T12:00:39;101600.50;;;21.61;42.87
13456;BME280;6800;50.940;6.940;2023-02-19T12:17:49;101579.38;;;22.67;40.18
13456;BME280;6800;50.940;6.940;2023-02-19T12:22:10;101590.56;;;22.41;40.76
13456;BME280;6800;50.940;6.940;2023-02-19T12:31:10;101589.97;;;22.76;38.85
13456;BME280;6800;50.940;6.940;2023-02-19T12:35:27;101584.66;;;23.59;37.16
13456;BME280;6800;50.940;6.940;2023-02-19T12:39:41;101586.34;;;24.05;37.37
13456;BME280;6800;50.940;6.940;2023-02-19T12:43:52;101591.69;;;24.05;37.22
13456;BME280;6800;50.940;6.940;2023-02-19T12:48:05;101592.19;;;23.91;36.49
13456;BME280;6800;50.940;6.940;2023-02-19T12:52:19;101581.72;;;23.25;37.40
13456;BME280;6800;50.940;6.940;2023-02-19T12:56:28;101602.09;;;23.07;37.08
13456;BME280;6800;50.940;6.940;2023-02-19T13:00:40;101598.19;;;23.11;37.03
13456;BME280;6800;50.940;6.940;2023-02-19T13:09:08;101610.59;;;22.45;39.35
13456;BME280;6800;50.940;6.940;2023-02-19T13:13:18;101621.22;;;22.17;40.41
13456;BME280;6800;50.940;6.940;2023-02-19T13:17:28;101630.56;;;21.52;41.91
13456;BME280;6800;50.940;6.940;2023-02-19T13:21:35;101635.94;;;21.41;41.97
13456;BME280;6800;50.940;6.940;2023-02-19T13:26:19;101639.56;;;21.80;41.73
13456;BME280;6800;50.940;6.940;2023-02-19T13:30:32;101647.50;;;21.61;42.49
13456;BME280;6800;50.940;6.940;2023-02-19T13:34:54;101642.25;;;21.20;42.02
13456;BME280;6800;50.940;6.940;2023-02-19T13:39:04;101650.59;;;21.36;41.19
13456;BME280;6800;50.940;6.940;2023-02-19T13:43:30;101657.97;;;20.70;42.92
13456;BME280;6800;50.940;6.940;2023-02-19T13:47:57;101648.66;;;20.96;42.26
13456;BME280;6800;50.940;6.940;2023-02-19T14:00:50;101652.47;;;21.45;42.80
13456;BME280;6800;50.940;6.940;2023-02-19T14:05:01;101661.72;;;21.20;43.03
13456;BME280;6800;50.940;6.940;2023-02-19T14:09:02;101660.38;;;21.65;42.62
13456;BME280;6800;50.940;6.940;2023-02-19T14:13:07;101667.22;;;21.38;42.88
13456;BME280;6800;50.940;6.940;2023-02-19T14:21:16;101688.09;;;21.63;42.26
13456;BME280;6800;50.940;6.940;2023-02-19T14:29:34;101687.66;;;21.67;41.88
13456;BME280;6800;50.940;6.940;2023-02-19T14:33:37;101696.53;;;21.77;41.77
13456;BME280;6800;50.940;6.940;2023-02-19T14:37:41;101700.91;;;21.58;41.63
13456;BME280;6800;50.940;6.940;2023-02-19T14:41:48;101712.38;;;20.96;43.35
13456;BME280;6800;50.940;6.940;2023-02-19T14:46:05;101713.31;;;21.48;43.04
13456;BME280;6800;50.940;6.940;2023-02-19T14:50:14;101721.41;;;21.46;42.92
13456;BME280;6800;50.940;6.940;2023-02-19T14:54:32;101717.66;;;21.28;42.85
13456;BME280;6800;50.940;6.940;2023-02-19T14:58:35;101722.66;;;20.90;43.52
13456;BME280;6800;50.940;6.940;2023-02-19T15:02:41;101729.16;;;20.23;44.31
13456;BME280;6800;50.940;6.940;2023-02-19T15:06:43;101725.41;;;20.68;43.20
13456;BME280;6800;50.940;6.940;2023-02-19T15:10:45;101720.88;;;20.59;42.83
13456;BME280;6800;50.940;6.940;2023-02-19T15:14:48;101715.13;;;20.74;43.17
13456;BME280;6800;50.940;6.940;2023-02-19T15:18:51;101709.34;;;21.01;42.53
13456;BME280;6800;50.940;6.940;2023-02-19T15:22:55;101704.63;;;20.41;43.78
13456;BME280;6800;50.940;6.940;2023-02-19T15:26:58;101695.22;;;20.80;42.49
13456;BME280;6800;50.940;6.940;2023-02-19T15:35:03;101690.75;;;21.12;42.40
13456;BME280;6800;50.940;6.940;2023-02-19T15:39:04;101680.53;;;20.96;42.31
13456;BME280;6800;50.940;6.940;2023-02-19T15:47:40;101665.00;;;21.13;41.71
13456;BME280;6800;50.940;6.940;2023-02-19T15:51:57;101656.13;;;20.50;42.46
13456;BME280;6800;50.940;6.940;2023-02-19T15:56:06;101653.94;;;21.08;41.49
13456;BME280;6800;50.940;6.940;2023-02-19T16:00:19;101659.09;;;20.88;41.41
13456;BME280;6800;50.940;6.940;2023-02-19T16:04:23;101656.22;;;21.12;41.24
13456;BME280;6800;50.940;6.940;2023-02-19T16:08:33;101662.13;;;20.63;41.91
13456;BME280;6800;50.940;6.940;2023-02-19T16:12:35;101661.09;;;20.96;42.21
13456;BME280;6800;50.940;6.940;2023-02-19T16:16:39;101664.63;;;20.44;42.47
13456;BME280;6800;50.940;6.940;2023-02-19T16:20:45;101675.31;;;20.74;41.91
13456;BME280;6800;50.940;6.940;2023-02-19T16:24:49;101684.38;;;20.40;42.32
13456;BME280;6800;50.940;6.940;2023-02-19T16:28:53;101688.53;;;20.85;41.10
13456;BME280;6800;50.940;6.940;2023-02-19T16:37:39;101696.88;;;20.49;41.74
13456;BME280;6800;50.940;6.940;2023-02-19T16:45:46;101705.50;;;20.08;42.45
13456;BME280;6800;50.940;6.940;2023-02-19T16:49:48;101702.38;;;20.14;42.63
13456;BME280;6800;50.940;6.940;2023-02-19T16:53:49;101707.22;;;19.87;43.22
13456;BME280;6800;50.940;6.940;2023-02-19T16:57:51;101733.97;;;20.29;42.44
13456;BME280;6800;50.940;6.940;2023-02-19T17:01:52;101743.25;;;20.01;42.42
13456;BME280;6800;50.940;6.940;2023-02-19T17:05:55;101743.84;;;20.38;41.50
13456;BME280;6800;50.940;6.940;2023-02-19T17:09:56;101754.19;;;20.18;41.98
13456;BME280;6800;50.940;6.940;2023-02-19T17:13:58;101754.41;;;20.49;41.32
13456;BME280;6800;50.940;6.940;2023-02-19T17:17:59;101770.59;;;20.35;41.83
13456;BME280;6800;50.940;6.940;2023-02-19T17:22:00;101778.66;;;20.11;41.97
13456;BME280;6800;50.940;6.940;2023-02-19T17:26:02;101782.53;;;20.18;41.96
13456;BME280;6800;50.940;6.940;2023-02-19T17:30:12;101804.06;;;19.91;42.47
13456;BME280;6800;50.940;6.940;2023-02-19T17:34:15;101807.94;;;19.98;42.08
13456;BME280;6800;50.940;6.940;2023-02-19T17:38:17;101815.94;;;20.32;41.65
13456;BME280;6800;50.940;6.940;2023-02-19T17:42:18;101811.22;;;19.45;41.99
13456;BME280;6800;50.940;6.940;2023-02-19T17:46:22;101825.09;;;20.39;40.90
13456;BME280;6800;50.940;6.940;2023-02-19T17:50:27;101822.78;;;19.44;42.49
13456;BME280;6800;50.940;6.940;2023-02-19T17:54:28;101831.50;;;19.10;42.34
13456;BME280;6800;50.940;6.940;2023-02-19T17:58:30;101829.97;;;19.88;39.95
13456;BME280;6800;50.940;6.940;2023-02-19T18:02:31;101840.94;;;19.94;40.00
13456;BME280;6800;50.940;6.940;2023-02-19T18:06:33;101842.91;;;20.03;39.46
13456;BME280;6800;50.940;6.940;2023-02-19T18:10:36;101846.47;;;19.91;39.62
13456;BME280;6800;50.940;6.940;2023-02-19T18:14:37;101854.16;;;19.61;39.71
13456;BME280;6800;50.940;6.940;2023-02-19T18:18:39;101859.78;;;19.57;40.17
13456;BME280;6800;50.940;6.940;2023-02-19T18:22:41;101847.72;;;19.53;40.15
13456;BME280;6800;50.940;6.940;2023-02-19T18:26:43;101861.38;;;19.70;39.59
13456;BME280;6800;50.940;6.940;2023-02-19T18:30:44;101860.94;;;19.76;39.30
13456;BME280;6800;50.940;6.940;2023-02-19T18:34:50;101859.66;;;19.58;39.82
13456;BME280;6800;50.940;6.940;2023-02-19T18:38:52;101860.00;;;19.30;40.13
13456;BME280;6800;50.940;6.940;2023-02-19T18:42:54;101858.78;;;19.23;39.33
13456;BME280;6800;50.940;6.940;2023-02-19T18:46:55;101862.44;;;19.33;39.43
13456;BME280;6800;50.940;6.940;2023-02-19T18:50:57;101858.06;;;19.32;39.55
13456;BME280;6800;50.940;6.940;2023-02-19T18:54:58;101865.63;;;19.38;39.17
13456;BME280;6800;50.940;6.940;2023-02-19T18:59:00;101867.22;;;19.28;38.93
13456;BME280;6800;50.940;6.940;2023-02-19T19:03:04;101876.06;;;19.16;39.35
13456;BME280;6800;50.940;6.940;2023-02-19T19:07:07;101887.56;;;19.27;39.09
13456;BME280;6800;50.940;6.940;2023-02-19T19:11:09;101884.38;;;19.35;38.90
13456;BME280;6800;50.940;6.940;2023-02-19T19:15:11;101886.31;;;19.20;39.00
13456;BME280;6800;50.940;6.940;2023-02-19T19:19:13;101883.06;;;19.40;38.31
13456;BME280;6800;50.940;6.940;2023-02-19T19:23:14;101889.66;;;19.35;38.86
13456;BME280;6800;50.940;6.940;2023-02-19T19:27:19;101890.16;;;19.16;39.17
13456;BME280;6800;50.940;6.940;2023-02-19T19:31:21;101895.25;;;19.07;39.51
13456;BME280;6800;50.940;6.940;2023-02-19T19:35:23;101909.00;;;19.12;39.67
13456;BME280;6800;50.940;6.940;2023-02-19T19:39:24;101895.81;;;18.99;39.53
13456;BME280;6800;50.940;6.940;2023-02-19T19:43:29;101905.25;;;19.27;39.01
13456;BME280;6800;50.940;6.940;2023-02-19T19:47:31;101911.25;;;19.05;39.30
13456;BME280;6800;50.940;6.940;2023-02-19T19:51:33;101910.66;;;19.02;39.85
13456;BME280;6800;50.940;6.940;2023-02-19T19:55:35;101902.41;;;18.94;38.94
13456;BME280;6800;50.940;6.940;2023-02-19T19:59:37;101905.97;;;19.05;39.14
13456;BME280;6800;50.940;6.940;2023-02-19T20:03:39;101901.56;;;18.93;39.40
13456;BME280;6800;50.940;6.940;2023-02-19T20:07:40;101904.06;;;19.07;39.06
13456;BME280;6800;50.940;6.940;2023-02-19T20:11:47;101915.25;;;19.11;38.74
13456;BME280;6800;50.940;6.940;2023-02-19T20:15:50;101913.69;;;19.08;39.16
13456;BME280;6800;50.940;6.940;2023-02-19T20:19:52;101926.03;;;18.84;39.77
13456;BME280;6800;50.940;6.940;2023-02-19T20:23:53;101923.63;;;19.05;39.96
13456;BME280;6800;50.940;6.940;2023-02-19T20:27:55;101919.88;;;18.84;39.84
13456;BME280;6800;50.940;6.940;2023-02-19T20:31:56;101931.44;;;18.83;39.11
13456;BME280;6800;50.940;6.940;2023-02-19T20:36:02;101927.00;;;18.70;39.04
13456;BME280;6800;50.940;6.940;2023-02-19T20:40:05;101938.31;;;18.73;38.93
13456;BME280;6800;50.940;6.940;2023-02-19T20:44:07;101939.81;;;18.51;38.38
13456;BME280;6800;50.940;6.940;2023-02-19T20:48:08;101951.09;;;18.41;38.73
13456;BME280;6800;50.940;6.940;2023-02-19T20:52:09;101939.16;;;18.35;38.77
13456;BME280;6800;50.940;6.940;2023-02-19T20:56:11;101945.00;;;18.28;39.29
13456;BME280;6800;50.940;6.940;2023-02-19T21:00:13;101949.72;;;18.10;39.23
13456;BME280;6800;50.940;6.940;2023-02-19T21:04:16;101942.75;;;18.22;39.09
13456;BME280;6800;50.940;6.940;2023-02-19T21:08:18;101948.88;;;17.97;39.16
13456;BME280;6800;50.940;6.940;2023-02-19T21:12:20;101957.69;;;17.83;39.33
13456;BME280;6800;50.940;6.940;2023-02-19T21:16:22;101959.50;;;17.83;39.42
13456;BME280;6800;50.940;6.940;2023-02-19T21:20:23;101969.78;;;17.61;39.86
13456;BME280;6800;50.940;6.940;2023-02-19T21:24:25;101969.34;;;17.81;39.64
13456;BME280;6800;50.940;6.940;2023-02-19T21:28:26;101971.13;;;17.80;39.32
13456;BME280;6800;50.940;6.940;2023-02-19T21:32:28;101978.59;;;17.74;41.01
13456;BME280;6800;50.940;6.940;2023-02-19T21:36:29;101985.44;;;17.64;40.70
13456;BME280;6800;50.940;6.940;2023-02-19T21:40:31;101977.16;;;17.82;39.69
13456;BME280;6800;50.940;6.940;2023-02-19T21:44:33;101978.00;;;17.83;39.56
13456;BME280;6800;50.940;6.940;2023-02-19T21:48:34;101970.47;;;17.50;40.23
13456;BME280;6800;50.940;6.940;2023-02-19T21:52:35;101970.81;;;17.58;40.63
13456;BME280;6800;50.940;6.940;2023-02-19T21:56:38;101980.00;;;17.53;40.63
13456;BME280;6800;50.940;6.940;2023-02-19T22:00:40;101979.41;;;17.48;40.76
13456;BME280;6800;50.940;6.940;2023-02-19T22:04:41;101975.66;;;17.52;40.64
13456;BME280;6800;50.940;6.940;2023-02-19T22:08:43;101975.75;;;17.50;40.81
13456;BME280;6800;50.940;6.940;2023-02-19T22:12:44;101961.22;;;17.43;40.92
13456;BME280;6800;50.940;6.940;2023-02-19T22:16:50;101965.28;;;17.49;40.82
13456;BME280;6800;50.940;6.940;2023-02-19T22:20:52;101957.72;;;17.30;41.03
13456;BME280;6800;50.940;6.940;2023-02-19T22:24:53;101958.53;;;17.31;41.06
13456;BME280;6800;50.940;6.940;2023-02-19T22:28:57;101973.84;;;17.26;41.41
13456;BME280;6800;50.940;6.940;2023-02-19T22:32:59;101976.88;;;17.20;41.25
13456;BME280;6800;50.940;6.940;2023-02-19T22:37:01;101984.59;;;17.08;42.18
13456;BME280;6800;50.940;6.940;2023-02-19T22:41:02;101974.06;;;17.35;41.33
13456;BME280;6800;50.940;6.940;2023-02-19T22:45:04;101988.63;;;17.28;41.19
13456;BME280;6800;50.940;6.940;2023-02-19T22:49:06;101978.53;;;17.21;41.46
13456;BME280;6800;50.940;6.940;2023-02-19T22:53:07;101962.53;;;17.24;41.57
13456;BME280;6800;50.940;6.940;2023-02-19T22:57:09;101960.41;;;17.29;41.46
13456;BME280;6800;50.940;6.940;2023-02-19T23:01:12;101965.41;;;17.33;41.72
13456;BME280;6800;50.940;6.940;2023-02-19T23:05:14;101952.25;;;17.46;41.51
13456;BME280;6800;50.940;6.940;2023-02-19T23:09:17;101954.56;;;17.38;41.74